createdAt,value
2019-05-07T00:00:35.193Z,20.70
2019-05-07T00:01:35.179Z,19.00
2019-05-07T00:02:35.170Z,22.10
2019-05-07T00:03:35.157Z,20.30
2019-05-07T00:04:35.141Z,19.20
2019-05-07T00:05:35.151Z,21.20
2019-05-07T00:06:35.154Z,18.80
2019-05-07T00:07:35.115Z,18.80
2019-05-07T00:08:35.101Z,20.10
2019-05-07T00:09:35.093Z,18.50
2019-05-07T00:10:35.077Z,18.50
2019-05-07T00:11:35.078Z,18.80
2019-05-07T00:12:35.068Z,18.70
2019-05-07T00:13:35.049Z,21.40
2019-05-07T00:14:35.028Z,20.40
2019-05-07T00:15:35.026Z,20.40
2019-05-07T00:16:35.007Z,20.20
2019-05-07T00:17:35.021Z,20.10
2019-05-07T00:18:34.989Z,19.20
2019-05-07T00:19:35.915Z,21.00
2019-05-07T00:20:34.966Z,19.50
2019-05-07T00:21:34.952Z,19.90
2019-05-07T00:22:34.943Z,19.90
2019-05-07T00:23:34.954Z,20.40
2019-05-07T00:24:34.923Z,19.80
2019-05-07T00:25:34.912Z,20.10
2019-05-07T00:26:34.895Z,19.80
2019-05-07T00:27:34.885Z,20.00
2019-05-07T00:28:34.878Z,19.40
2019-05-07T00:29:34.895Z,18.80
2019-05-07T00:30:34.854Z,18.20
2019-05-07T00:31:34.845Z,19.70
2019-05-07T00:32:34.835Z,18.60
2019-05-07T00:33:34.819Z,20.10
2019-05-07T00:34:34.812Z,21.70
2019-05-07T00:35:34.816Z,21.00
2019-05-07T00:36:34.796Z,21.10
2019-05-07T00:37:34.777Z,21.90
2019-05-07T00:38:34.772Z,21.10
2019-05-07T00:39:34.756Z,21.40
2019-05-07T00:40:34.741Z,21.00
2019-05-07T00:41:34.748Z,20.00
2019-05-07T00:42:34.724Z,21.60
2019-05-07T00:43:34.710Z,19.60
2019-05-07T00:44:34.698Z,19.60
2019-05-07T00:45:34.685Z,19.20
2019-05-07T00:46:34.681Z,19.50
2019-05-07T00:47:34.714Z,19.90
2019-05-07T00:48:34.655Z,20.40
2019-05-07T00:49:34.665Z,22.10
2019-05-07T00:50:34.633Z,21.50
2019-05-07T00:51:34.633Z,21.80
2019-05-07T00:52:34.615Z,21.60
2019-05-07T00:53:34.611Z,20.00
2019-05-07T00:54:34.585Z,20.50
2019-05-07T00:55:34.577Z,21.40
2019-05-07T00:56:34.568Z,19.40
2019-05-07T00:57:34.556Z,20.70
2019-05-07T00:58:34.547Z,21.30
2019-05-07T00:59:34.549Z,19.80
2019-05-07T01:00:34.523Z,19.50
2019-05-07T01:01:34.511Z,20.00
2019-05-07T01:02:34.501Z,19.80
2019-05-07T01:03:34.483Z,19.90
2019-05-07T01:04:34.478Z,20.00
2019-05-07T01:05:34.486Z,20.40
2019-05-07T01:06:34.462Z,21.60
2019-05-07T01:07:34.443Z,21.30
2019-05-07T01:08:34.439Z,22.10
2019-05-07T01:09:34.422Z,21.70
2019-05-07T01:10:34.412Z,21.50
2019-05-07T01:11:34.413Z,21.30
2019-05-07T01:12:34.384Z,21.50
2019-05-07T01:13:34.373Z,21.90
2019-05-07T01:14:34.362Z,22.30
2019-05-07T01:15:34.878Z,22.90
2019-05-07T01:16:34.347Z,23.60
2019-05-07T01:17:34.346Z,22.30
2019-05-07T01:18:34.319Z,21.60
2019-05-07T01:19:34.305Z,21.80
2019-05-07T01:20:34.294Z,21.10
2019-05-07T01:21:34.282Z,22.00
2019-05-07T01:22:34.270Z,21.20
2019-05-07T01:23:34.279Z,22.20
2019-05-07T01:24:34.250Z,22.90
2019-05-07T01:25:34.237Z,22.60
2019-05-07T01:26:34.230Z,23.40
2019-05-07T01:27:34.220Z,24.20
2019-05-07T01:28:34.203Z,23.80
2019-05-07T01:29:34.208Z,24.70
2019-05-07T01:30:34.190Z,23.90
2019-05-07T01:31:34.179Z,23.20
2019-05-07T01:32:34.159Z,24.50
2019-05-07T01:33:34.153Z,24.00
2019-05-07T01:34:34.136Z,24.10
2019-05-07T01:35:34.143Z,26.50
2019-05-07T01:36:34.123Z,25.00
2019-05-07T01:37:34.113Z,23.30
2019-05-07T01:38:34.109Z,23.00
2019-05-07T01:39:34.096Z,23.80
2019-05-07T01:40:34.069Z,22.50
2019-05-07T01:41:34.083Z,22.40
2019-05-07T01:42:36.600Z,22.70
2019-05-07T01:43:34.047Z,23.80
2019-05-07T01:44:34.061Z,24.10
2019-05-07T01:45:45.509Z,23.60
2019-05-07T01:46:35.024Z,24.00
2019-05-07T01:47:33.997Z,23.80
2019-05-07T01:48:33.988Z,24.10
2019-05-07T01:49:33.984Z,24.00
2019-05-07T01:50:33.959Z,24.00
2019-05-07T01:51:33.949Z,24.20
2019-05-07T01:52:33.959Z,24.50
2019-05-07T01:53:33.930Z,26.20
2019-05-07T01:54:33.918Z,28.10
2019-05-07T01:55:33.910Z,26.90
2019-05-07T01:56:33.913Z,26.70
2019-05-07T01:57:33.893Z,28.70
2019-05-07T01:58:33.898Z,25.60
2019-05-07T01:59:33.862Z,27.00
2019-05-07T02:00:33.846Z,25.60
2019-05-07T02:01:35.878Z,24.30
2019-05-07T02:02:33.829Z,24.70
2019-05-07T02:03:33.822Z,27.00
2019-05-07T02:04:33.822Z,26.30
2019-05-07T02:05:33.797Z,27.00
2019-05-07T02:06:33.784Z,25.90
2019-05-07T02:07:33.769Z,25.40
2019-05-07T02:08:33.762Z,25.40
2019-05-07T02:09:34.123Z,25.30
2019-05-07T02:10:33.770Z,25.70
2019-05-07T02:11:33.727Z,25.10
2019-05-07T02:12:33.720Z,26.00
2019-05-07T02:13:33.935Z,24.90
2019-05-07T02:14:33.697Z,25.90
2019-05-07T02:15:33.687Z,25.20
2019-05-07T02:16:33.709Z,24.50
2019-05-07T02:17:33.686Z,24.50
2019-05-07T02:18:33.651Z,22.80
2019-05-07T02:19:33.655Z,24.80
2019-05-07T02:20:33.630Z,25.90
2019-05-07T02:21:33.623Z,26.90
2019-05-07T02:22:33.627Z,26.20
2019-05-07T02:23:33.594Z,25.70
2019-05-07T02:24:34.018Z,25.60
2019-05-07T02:25:33.569Z,26.30
2019-05-07T02:26:33.563Z,27.90
2019-05-07T02:27:33.554Z,28.30
2019-05-07T02:28:33.580Z,28.00
2019-05-07T02:29:33.538Z,27.50
2019-05-07T02:30:34.894Z,27.90
2019-05-07T02:31:33.999Z,28.00
2019-05-07T02:32:33.894Z,32.10
2019-05-07T02:33:35.144Z,30.40
2019-05-07T02:34:34.326Z,29.00
2019-05-07T02:35:33.758Z,28.90
2019-05-07T02:36:34.165Z,29.40
2019-05-07T02:37:46.423Z,28.00
2019-05-07T02:38:34.427Z,28.40
2019-05-07T02:39:33.506Z,32.50
2019-05-07T02:40:34.107Z,31.60
2019-05-07T02:41:33.411Z,31.00
2019-05-07T02:42:33.830Z,31.10
2019-05-07T02:43:33.918Z,30.10
2019-05-07T02:44:33.363Z,31.70
2019-05-07T02:45:33.524Z,30.50
2019-05-07T02:46:36.381Z,33.60
2019-05-07T02:47:33.549Z,31.30
2019-05-07T02:48:33.461Z,29.20
2019-05-07T02:49:33.307Z,30.60
2019-05-07T02:50:33.293Z,30.50
2019-05-07T02:51:33.796Z,30.00
2019-05-07T02:52:33.289Z,28.10
2019-05-07T02:53:33.924Z,29.30
2019-05-07T02:54:33.277Z,29.80
2019-05-07T02:55:33.806Z,29.30
2019-05-07T02:56:33.665Z,29.10
2019-05-07T02:57:34.283Z,31.00
2019-05-07T02:58:33.383Z,31.40
2019-05-07T02:59:33.722Z,28.50
2019-05-07T03:00:33.600Z,28.90
2019-05-07T03:01:33.791Z,26.60
2019-05-07T03:02:33.348Z,27.00
2019-05-07T03:03:33.644Z,26.60
2019-05-07T03:04:33.505Z,26.10
2019-05-07T03:05:35.007Z,26.00
2019-05-07T03:06:33.864Z,26.10
2019-05-07T03:07:33.713Z,25.90
2019-05-07T03:08:33.464Z,27.60
2019-05-07T03:09:33.087Z,26.80
2019-05-07T03:10:34.073Z,26.10
2019-05-07T03:11:33.934Z,26.00
2019-05-07T03:12:33.675Z,25.00
2019-05-07T03:13:33.748Z,25.60
2019-05-07T03:14:33.033Z,26.50
2019-05-07T03:15:33.610Z,26.70
2019-05-07T03:16:43.121Z,27.70
2019-05-07T03:17:33.997Z,27.90
2019-05-07T03:18:33.682Z,28.30
2019-05-07T03:19:33.264Z,28.20
2019-05-07T03:20:33.506Z,29.60
2019-05-07T03:21:32.988Z,28.50
2019-05-07T03:22:33.831Z,29.50
2019-05-07T03:23:34.081Z,30.50
2019-05-07T03:24:34.307Z,31.60
2019-05-07T03:25:33.853Z,30.20
2019-05-07T03:26:34.138Z,30.40
2019-05-07T03:27:34.106Z,30.10
2019-05-07T03:28:33.577Z,30.00
2019-05-07T03:29:33.531Z,31.00
2019-05-07T03:30:36.004Z,29.40
2019-05-07T03:31:36.150Z,29.70
2019-05-07T03:32:37.773Z,28.90
2019-05-07T03:33:36.663Z,29.80
2019-05-07T03:34:36.905Z,29.80
2019-05-07T03:35:37.126Z,29.80
2019-05-07T03:36:35.383Z,29.10
2019-05-07T03:37:36.119Z,30.00
2019-05-07T03:38:33.467Z,28.10
2019-05-07T03:39:33.862Z,28.40
2019-05-07T03:40:33.051Z,28.30
2019-05-07T03:41:33.332Z,29.00
2019-05-07T03:42:33.517Z,29.60
2019-05-07T03:43:32.760Z,28.40
2019-05-07T03:44:33.872Z,28.90
2019-05-07T03:45:33.472Z,27.90
2019-05-07T03:46:33.643Z,28.40
2019-05-07T03:47:33.298Z,31.40
2019-05-07T03:48:33.437Z,31.60
2019-05-07T03:49:34.195Z,31.50
2019-05-07T03:50:33.799Z,31.40
2019-05-07T03:51:33.027Z,30.70
2019-05-07T03:52:33.517Z,30.10
2019-05-07T03:53:33.964Z,30.00
2019-05-07T03:54:34.073Z,30.50
2019-05-07T03:55:33.231Z,29.00
2019-05-07T03:56:33.001Z,28.60
2019-05-07T03:57:33.402Z,30.60
2019-05-07T03:58:33.934Z,29.30
2019-05-07T03:59:34.292Z,29.00
2019-05-07T04:00:33.194Z,29.70
2019-05-07T04:01:33.467Z,29.10
2019-05-07T04:02:33.312Z,29.20
2019-05-07T04:03:34.108Z,30.60
2019-05-07T04:04:33.278Z,30.20
2019-05-07T04:05:34.154Z,29.90
2019-05-07T04:06:33.226Z,29.10
2019-05-07T04:07:33.618Z,29.20
2019-05-07T04:08:33.496Z,31.00
2019-05-07T04:09:33.278Z,29.70
2019-05-07T04:10:33.839Z,28.10
2019-05-07T04:11:33.703Z,28.80
2019-05-07T04:12:34.285Z,29.80
2019-05-07T04:13:33.555Z,29.30
2019-05-07T04:14:34.388Z,28.20
2019-05-07T04:15:33.149Z,29.90
2019-05-07T04:16:33.282Z,31.00
2019-05-07T04:17:33.774Z,32.00
2019-05-07T04:18:33.172Z,30.80
2019-05-07T04:19:32.978Z,33.30
2019-05-07T04:20:33.347Z,40.30
2019-05-07T04:21:34.498Z,38.60
2019-05-07T04:22:34.623Z,32.90
2019-05-07T04:23:34.074Z,34.40
2019-05-07T04:24:33.344Z,33.30
2019-05-07T04:25:34.708Z,31.40
2019-05-07T04:26:33.852Z,30.80
2019-05-07T04:27:33.278Z,28.20
2019-05-07T04:28:33.428Z,27.70
2019-05-07T04:29:34.968Z,28.30
2019-05-07T04:30:33.059Z,28.60
2019-05-07T04:31:34.249Z,27.40
2019-05-07T04:32:33.465Z,28.50
2019-05-07T04:33:33.415Z,29.10
2019-05-07T04:34:33.707Z,29.70
2019-05-07T04:35:33.401Z,32.40
2019-05-07T04:36:34.159Z,31.70
2019-05-07T04:37:33.201Z,31.80
2019-05-07T04:38:33.484Z,31.50
2019-05-07T04:39:33.455Z,31.30
2019-05-07T04:40:33.867Z,30.50
2019-05-07T04:41:33.034Z,29.40
2019-05-07T04:42:33.348Z,30.10
2019-05-07T04:43:33.670Z,30.50
2019-05-07T04:44:33.188Z,31.70
2019-05-07T04:45:33.823Z,31.80
2019-05-07T04:46:33.386Z,32.00
2019-05-07T04:47:41.561Z,32.80
2019-05-07T04:48:34.003Z,33.30
2019-05-07T04:49:33.248Z,31.70
2019-05-07T04:50:42.012Z,31.20
2019-05-07T04:51:33.649Z,30.70
2019-05-07T04:52:33.643Z,30.80
2019-05-07T04:53:32.778Z,30.10
2019-05-07T04:54:32.943Z,29.20
2019-05-07T04:55:33.465Z,30.10
2019-05-07T04:56:33.709Z,29.70
2019-05-07T04:57:33.008Z,28.60
2019-05-07T04:58:33.826Z,28.20
2019-05-07T04:59:32.982Z,30.10
2019-05-07T05:00:33.615Z,26.70
2019-05-07T05:01:32.859Z,27.60
2019-05-07T05:02:32.526Z,28.20
2019-05-07T05:03:34.704Z,27.70
2019-05-07T05:04:34.808Z,28.80
2019-05-07T05:05:32.911Z,28.90
2019-05-07T05:06:32.957Z,28.50
2019-05-07T05:07:33.527Z,28.30
2019-05-07T05:08:32.602Z,28.00
2019-05-07T05:09:32.953Z,29.10
2019-05-07T05:10:33.626Z,29.40
2019-05-07T05:11:33.510Z,28.40
2019-05-07T05:12:32.602Z,29.10
2019-05-07T05:13:33.169Z,28.30
2019-05-07T05:14:33.857Z,29.50
2019-05-07T05:15:32.173Z,28.70
2019-05-07T05:16:32.758Z,28.60
2019-05-07T05:17:32.091Z,28.40
2019-05-07T05:18:32.959Z,28.20
2019-05-07T05:19:32.321Z,28.70
2019-05-07T05:20:33.601Z,28.30
2019-05-07T05:21:32.259Z,28.50
2019-05-07T05:22:31.840Z,28.10
2019-05-07T05:23:32.268Z,28.30
2019-05-07T05:24:32.986Z,25.70
2019-05-07T05:25:32.269Z,26.30
2019-05-07T05:26:32.520Z,27.30
2019-05-07T05:27:32.691Z,26.40
2019-05-07T05:28:32.387Z,27.20
2019-05-07T05:29:32.282Z,27.20
2019-05-07T05:30:32.697Z,27.20
2019-05-07T05:31:33.068Z,27.50
2019-05-07T05:32:32.491Z,26.50
2019-05-07T05:33:32.344Z,27.40
2019-05-07T05:34:32.947Z,27.50
2019-05-07T05:35:32.061Z,28.50
2019-05-07T05:36:32.970Z,24.90
2019-05-07T05:37:32.122Z,26.10
2019-05-07T05:38:32.956Z,25.50
2019-05-07T05:39:32.034Z,26.00
2019-05-07T05:40:32.020Z,26.40
2019-05-07T05:41:33.807Z,27.20
2019-05-07T05:42:33.047Z,26.00
2019-05-07T05:43:32.046Z,25.70
2019-05-07T05:44:32.039Z,25.60
2019-05-07T05:45:33.346Z,25.90
2019-05-07T05:46:31.945Z,25.70
2019-05-07T05:47:33.007Z,26.20
2019-05-07T05:48:33.351Z,25.80
2019-05-07T05:49:32.185Z,26.80
2019-05-07T05:50:33.156Z,26.40
2019-05-07T05:51:32.233Z,26.30
2019-05-07T05:52:32.888Z,26.70
2019-05-07T05:53:32.673Z,28.20
2019-05-07T05:54:31.837Z,25.90
2019-05-07T05:55:32.199Z,27.00
2019-05-07T05:56:32.411Z,26.90
2019-05-07T05:57:32.291Z,26.40
2019-05-07T05:58:32.548Z,23.90
2019-05-07T05:59:47.415Z,25.30
2019-05-07T06:00:32.848Z,24.80
2019-05-07T06:01:32.033Z,24.40
2019-05-07T06:02:32.407Z,25.80
2019-05-07T06:03:32.223Z,25.90
2019-05-07T06:04:32.875Z,25.70
2019-05-07T06:05:34.242Z,24.30
2019-05-07T06:06:32.708Z,23.60
2019-05-07T06:07:31.886Z,23.90
2019-05-07T06:08:32.482Z,22.80
2019-05-07T06:09:32.772Z,23.60
2019-05-07T06:10:33.017Z,24.00
2019-05-07T06:11:32.213Z,23.30
2019-05-07T06:12:32.829Z,23.60
2019-05-07T06:13:32.329Z,24.20
2019-05-07T06:14:33.068Z,24.00
2019-05-07T06:15:32.708Z,25.50
2019-05-07T06:16:32.855Z,23.80
2019-05-07T06:17:32.077Z,21.70
2019-05-07T06:18:32.709Z,22.10
2019-05-07T06:19:32.833Z,22.50
2019-05-07T06:20:32.058Z,21.80
2019-05-07T06:21:32.269Z,22.40
2019-05-07T06:22:33.076Z,22.90
2019-05-07T06:23:32.967Z,22.40
2019-05-07T06:24:31.783Z,21.90
2019-05-07T06:25:33.456Z,20.50
2019-05-07T06:26:31.895Z,22.70
2019-05-07T06:27:32.522Z,23.10
2019-05-07T06:28:32.948Z,22.40
2019-05-07T06:29:32.854Z,21.80
2019-05-07T06:30:30.874Z,21.90
2019-05-07T06:31:32.701Z,22.90
2019-05-07T06:32:32.016Z,22.10
2019-05-07T06:33:32.461Z,23.10
2019-05-07T06:34:30.830Z,22.20
2019-05-07T06:35:32.486Z,21.80
2019-05-07T06:36:32.851Z,21.90
2019-05-07T06:37:32.162Z,22.10
2019-05-07T06:38:31.969Z,21.70
2019-05-07T06:39:32.692Z,21.70
2019-05-07T06:40:32.110Z,20.90
2019-05-07T06:41:32.258Z,21.70
2019-05-07T06:42:30.733Z,21.90
2019-05-07T06:43:32.545Z,21.90
2019-05-07T06:44:32.038Z,21.70
2019-05-07T06:45:34.713Z,22.50
2019-05-07T06:46:32.278Z,20.40
2019-05-07T06:47:31.922Z,21.00
2019-05-07T06:48:38.921Z,21.40
2019-05-07T06:49:32.426Z,22.00
2019-05-07T06:50:32.676Z,20.30
2019-05-07T06:51:32.657Z,20.20
2019-05-07T06:52:31.976Z,20.50
2019-05-07T06:53:32.955Z,20.40
2019-05-07T06:54:32.117Z,20.40
2019-05-07T06:55:32.409Z,20.10
2019-05-07T06:56:32.561Z,19.90
2019-05-07T06:57:32.834Z,19.50
2019-05-07T06:58:32.572Z,18.70
2019-05-07T06:59:34.307Z,17.40
2019-05-07T07:00:31.937Z,18.10
2019-05-07T07:01:32.358Z,18.20
2019-05-07T07:02:32.747Z,17.90
2019-05-07T07:03:32.709Z,17.40
2019-05-07T07:04:30.487Z,16.70
2019-05-07T07:05:32.855Z,17.70
2019-05-07T07:06:32.184Z,17.60
2019-05-07T07:07:34.702Z,18.00
2019-05-07T07:08:32.518Z,19.10
2019-05-07T07:09:32.787Z,17.60
2019-05-07T07:10:32.252Z,16.80
2019-05-07T07:11:31.943Z,16.70
2019-05-07T07:12:32.478Z,17.60
2019-05-07T07:13:32.175Z,18.40
2019-05-07T07:14:30.383Z,18.10
2019-05-07T07:15:32.079Z,17.90
2019-05-07T07:16:32.505Z,17.40
2019-05-07T07:17:32.417Z,17.50
2019-05-07T07:18:32.307Z,18.50
2019-05-07T07:19:32.533Z,17.50
2019-05-07T07:20:32.455Z,18.00
2019-05-07T07:21:32.522Z,19.00
2019-05-07T07:22:31.929Z,19.00
2019-05-07T07:23:32.406Z,19.20
2019-05-07T07:24:30.259Z,19.10
2019-05-07T07:25:32.411Z,19.50
2019-05-07T07:26:32.652Z,20.60
2019-05-07T07:27:32.212Z,21.10
2019-05-07T07:28:32.420Z,21.30
2019-05-07T07:29:32.381Z,22.00
2019-05-07T07:30:32.458Z,21.40
2019-05-07T07:31:31.939Z,21.70
2019-05-07T07:32:31.771Z,22.00
2019-05-07T07:33:31.975Z,22.20
2019-05-07T07:34:30.140Z,23.50
2019-05-07T07:35:32.128Z,22.40
2019-05-07T07:36:32.030Z,24.50
2019-05-07T07:37:32.007Z,24.90
2019-05-07T07:38:30.117Z,24.10
2019-05-07T07:39:32.184Z,23.40
2019-05-07T07:40:30.078Z,23.80
2019-05-07T07:41:32.510Z,24.10
2019-05-07T07:42:31.958Z,24.60
2019-05-07T07:43:32.378Z,23.90
2019-05-07T07:44:30.044Z,25.10
2019-05-07T07:45:32.242Z,23.20
2019-05-07T07:46:30.046Z,22.40
2019-05-07T07:47:29.989Z,22.90
2019-05-07T07:48:31.898Z,23.40
2019-05-07T07:49:29.966Z,22.90
2019-05-07T07:50:29.974Z,22.40
2019-05-07T07:51:40.606Z,23.40
2019-05-07T07:52:32.412Z,23.40
2019-05-07T07:53:33.121Z,23.50
2019-05-07T07:54:32.108Z,22.10
2019-05-07T07:55:29.899Z,22.20
2019-05-07T07:56:45.324Z,21.60
2019-05-07T07:57:32.425Z,21.20
2019-05-07T07:58:31.573Z,21.50
2019-05-07T07:59:29.847Z,20.70
2019-05-07T08:00:32.317Z,21.80
2019-05-07T08:01:29.824Z,21.40
2019-05-07T08:02:32.069Z,22.30
2019-05-07T08:03:29.803Z,23.40
2019-05-07T08:04:31.864Z,21.60
2019-05-07T08:05:29.777Z,21.90
2019-05-07T08:06:29.762Z,20.80
2019-05-07T08:07:29.753Z,21.70
2019-05-07T08:08:31.478Z,21.30
2019-05-07T08:09:29.727Z,21.10
2019-05-07T08:10:32.391Z,21.90
2019-05-07T08:11:31.831Z,21.50
2019-05-07T08:12:29.691Z,22.30
2019-05-07T08:13:29.681Z,21.30
2019-05-07T08:14:32.394Z,21.80
2019-05-07T08:15:29.659Z,21.80
2019-05-07T08:16:29.645Z,21.20
2019-05-07T08:17:29.640Z,20.90
2019-05-07T08:18:29.726Z,21.30
2019-05-07T08:19:29.605Z,23.00
2019-05-07T08:20:29.609Z,21.70
2019-05-07T08:21:29.595Z,21.70
2019-05-07T08:22:29.570Z,22.60
2019-05-07T08:23:31.817Z,21.90
2019-05-07T08:24:31.899Z,22.20
2019-05-07T08:25:29.535Z,21.60
2019-05-07T08:26:29.541Z,21.90
2019-05-07T08:27:29.506Z,22.80
2019-05-07T08:28:31.773Z,23.10
2019-05-07T08:29:29.485Z,21.80
2019-05-07T08:30:29.473Z,22.20
2019-05-07T08:31:29.495Z,21.80
2019-05-07T08:32:29.485Z,22.80
2019-05-07T08:33:29.436Z,22.90
2019-05-07T08:34:29.423Z,23.10
2019-05-07T08:35:29.418Z,22.50
2019-05-07T08:36:29.401Z,23.00
2019-05-07T08:37:29.392Z,22.70
2019-05-07T08:38:30.061Z,23.40
2019-05-07T08:39:29.365Z,22.70
2019-05-07T08:40:29.358Z,22.90
2019-05-07T08:41:29.339Z,22.70
2019-05-07T08:42:29.328Z,23.00
2019-05-07T08:43:29.320Z,22.00
2019-05-07T08:44:29.328Z,22.20
2019-05-07T08:45:29.346Z,22.50
2019-05-07T08:46:29.401Z,23.20
2019-05-07T08:47:29.289Z,23.10
2019-05-07T08:48:29.262Z,22.80
2019-05-07T08:49:36.793Z,23.60
2019-05-07T08:50:30.265Z,24.00
2019-05-07T08:51:29.226Z,22.90
2019-05-07T08:52:29.217Z,23.50
2019-05-07T08:53:29.240Z,23.30
2019-05-07T08:54:29.190Z,22.20
2019-05-07T08:55:29.216Z,22.40
2019-05-07T08:56:29.259Z,22.20
2019-05-07T08:57:29.188Z,21.80
2019-05-07T08:58:29.182Z,22.50
2019-05-07T08:59:29.174Z,22.30
2019-05-07T09:00:29.124Z,21.90
2019-05-07T09:01:29.121Z,21.40
2019-05-07T09:02:29.116Z,22.40
2019-05-07T09:03:29.118Z,20.30
2019-05-07T09:04:29.073Z,21.20
2019-05-07T09:05:29.066Z,20.70
2019-05-07T09:06:29.047Z,21.50
2019-05-07T09:07:29.076Z,20.90
2019-05-07T09:08:29.054Z,21.20
2019-05-07T09:09:29.012Z,22.10
2019-05-07T09:10:29.005Z,21.60
2019-05-07T09:11:28.998Z,22.10
2019-05-07T09:12:28.978Z,21.10
2019-05-07T09:13:28.970Z,21.60
2019-05-07T09:14:28.972Z,21.90
2019-05-07T09:15:28.943Z,21.40
2019-05-07T09:16:28.938Z,21.40
2019-05-07T09:17:28.944Z,21.50
2019-05-07T09:18:28.916Z,20.70
2019-05-07T09:19:28.900Z,19.40
2019-05-07T09:20:28.905Z,19.90
2019-05-07T09:21:28.887Z,19.30
2019-05-07T09:22:28.869Z,20.10
2019-05-07T09:23:28.881Z,20.70
2019-05-07T09:24:28.904Z,19.80
2019-05-07T09:25:28.831Z,19.90
2019-05-07T09:26:28.862Z,19.50
2019-05-07T09:27:28.875Z,19.20
2019-05-07T09:28:28.807Z,19.30
2019-05-07T09:29:28.786Z,20.10
2019-05-07T09:30:28.905Z,19.40
2019-05-07T09:31:28.773Z,17.30
2019-05-07T09:32:28.776Z,17.60
2019-05-07T09:33:28.749Z,16.50
2019-05-07T09:34:28.735Z,18.40
2019-05-07T09:35:28.727Z,19.20
2019-05-07T09:36:28.714Z,18.50
2019-05-07T09:37:28.819Z,17.30
2019-05-07T09:38:28.709Z,18.50
2019-05-07T09:39:28.681Z,17.50
2019-05-07T09:40:28.670Z,16.80
2019-05-07T09:41:28.655Z,17.10
2019-05-07T09:42:28.655Z,17.30
2019-05-07T09:43:28.633Z,17.40
2019-05-07T09:44:28.642Z,17.90
2019-05-07T09:45:28.620Z,18.80
2019-05-07T09:46:28.600Z,17.90
2019-05-07T09:47:28.620Z,18.80
2019-05-07T09:48:28.585Z,18.20
2019-05-07T09:49:28.568Z,18.20
2019-05-07T09:50:28.572Z,18.90
2019-05-07T09:51:28.551Z,18.70
2019-05-07T09:52:28.541Z,18.70
2019-05-07T09:53:28.526Z,18.70
2019-05-07T09:54:28.516Z,19.70
2019-05-07T09:55:28.508Z,19.80
2019-05-07T09:56:28.514Z,19.90
2019-05-07T09:57:31.655Z,18.80
2019-05-07T09:58:36.659Z,19.00
2019-05-07T09:59:29.462Z,19.50
2019-05-07T10:00:28.475Z,19.80
2019-05-07T10:01:28.440Z,19.10
2019-05-07T10:02:28.444Z,18.70
2019-05-07T10:03:28.417Z,17.80
2019-05-07T10:04:28.418Z,18.80
2019-05-07T10:05:28.400Z,18.70
2019-05-07T10:06:28.385Z,20.00
2019-05-07T10:07:28.400Z,19.20
2019-05-07T10:08:28.378Z,19.40
2019-05-07T10:09:28.355Z,19.10
2019-05-07T10:10:28.341Z,18.40
2019-05-07T10:11:28.333Z,19.50
2019-05-07T10:12:28.328Z,19.10
2019-05-07T10:13:28.309Z,19.30
2019-05-07T10:14:28.313Z,18.00
2019-05-07T10:15:28.295Z,19.60
2019-05-07T10:16:28.278Z,20.00
2019-05-07T10:17:28.269Z,19.60
2019-05-07T10:18:28.257Z,19.60
2019-05-07T10:19:28.245Z,19.80
2019-05-07T10:20:28.253Z,19.20
2019-05-07T10:21:28.223Z,19.70
2019-05-07T10:22:28.216Z,19.40
2019-05-07T10:23:28.204Z,19.40
2019-05-07T10:24:28.186Z,19.60
2019-05-07T10:25:28.195Z,19.10
2019-05-07T10:26:28.203Z,19.00
2019-05-07T10:27:28.158Z,20.30
2019-05-07T10:28:28.142Z,20.60
2019-05-07T10:29:28.135Z,21.20
2019-05-07T10:30:28.194Z,22.10
2019-05-07T10:31:28.106Z,22.20
2019-05-07T10:32:28.114Z,20.80
2019-05-07T10:33:28.084Z,21.20
2019-05-07T10:34:28.083Z,22.50
2019-05-07T10:35:30.943Z,24.90
2019-05-07T10:36:29.048Z,23.20
2019-05-07T10:37:28.042Z,23.40
2019-05-07T10:38:28.060Z,24.00
2019-05-07T10:39:28.016Z,23.70
2019-05-07T10:40:28.008Z,22.20
2019-05-07T10:41:28.008Z,21.00
2019-05-07T10:42:27.984Z,20.50
2019-05-07T10:43:27.980Z,20.70
2019-05-07T10:44:27.980Z,20.40
2019-05-07T10:45:27.955Z,20.90
2019-05-07T10:46:27.951Z,20.50
2019-05-07T10:47:27.929Z,19.60
2019-05-07T10:48:27.930Z,20.20
2019-05-07T10:49:27.905Z,20.30
2019-05-07T10:50:36.434Z,20.70
2019-05-07T10:51:28.884Z,20.30
2019-05-07T10:52:27.872Z,20.40
2019-05-07T10:53:27.863Z,19.90
2019-05-07T10:54:27.854Z,20.00
2019-05-07T10:55:27.837Z,19.50
2019-05-07T10:56:27.842Z,20.10
2019-05-07T10:57:27.817Z,20.30
2019-05-07T10:58:27.808Z,19.80
2019-05-07T10:59:27.796Z,20.20
2019-05-07T11:00:27.785Z,20.20
2019-05-07T11:01:27.772Z,19.80
2019-05-07T11:02:27.778Z,19.90
2019-05-07T11:03:27.751Z,19.60
2019-05-07T11:04:39.336Z,19.80
2019-05-07T11:05:28.729Z,19.40
2019-05-07T11:06:27.729Z,19.50
2019-05-07T11:07:27.708Z,19.20
2019-05-07T11:08:27.706Z,18.50
2019-05-07T11:09:27.681Z,18.90
2019-05-07T11:10:27.666Z,18.90
2019-05-07T11:11:27.663Z,19.10
2019-05-07T11:12:27.646Z,18.90
2019-05-07T11:13:27.636Z,19.50
2019-05-07T11:14:27.641Z,18.50
2019-05-07T11:15:27.611Z,18.20
2019-05-07T11:16:27.605Z,18.10
2019-05-07T11:17:27.588Z,18.90
2019-05-07T11:18:27.582Z,18.30
2019-05-07T11:19:27.567Z,17.80
2019-05-07T11:20:27.589Z,18.20
2019-05-07T11:21:27.547Z,18.00
2019-05-07T11:22:27.536Z,17.60
2019-05-07T11:23:27.524Z,18.50
2019-05-07T11:24:27.512Z,17.80
2019-05-07T11:25:27.510Z,16.70
2019-05-07T11:26:27.507Z,15.90
2019-05-07T11:27:27.479Z,16.60
2019-05-07T11:28:27.466Z,16.60
2019-05-07T11:29:27.454Z,16.40
2019-05-07T11:30:27.465Z,16.50
2019-05-07T11:31:27.432Z,16.70
2019-05-07T11:32:27.439Z,15.90
2019-05-07T11:33:27.408Z,16.20
2019-05-07T11:34:27.400Z,15.20
2019-05-07T11:35:27.392Z,15.00
2019-05-07T11:36:27.378Z,14.90
2019-05-07T11:37:27.371Z,15.20
2019-05-07T11:38:27.370Z,14.90
2019-05-07T11:39:27.354Z,14.80
2019-05-07T11:40:27.333Z,15.10
2019-05-07T11:41:27.326Z,14.50
2019-05-07T11:42:27.309Z,14.20
2019-05-07T11:43:27.299Z,15.90
2019-05-07T11:44:27.302Z,15.50
2019-05-07T11:45:27.276Z,14.70
2019-05-07T11:46:27.268Z,14.90
2019-05-07T11:47:27.253Z,15.20
2019-05-07T11:48:27.242Z,14.50
2019-05-07T11:49:27.232Z,15.50
2019-05-07T11:50:27.235Z,14.20
2019-05-07T11:51:27.234Z,14.50
2019-05-07T11:52:27.195Z,14.30
2019-05-07T11:53:27.185Z,14.50
2019-05-07T11:54:27.186Z,15.00
2019-05-07T11:55:27.171Z,14.30
2019-05-07T11:56:27.173Z,13.40
2019-05-07T11:57:27.144Z,14.20
2019-05-07T11:58:27.131Z,12.40
2019-05-07T11:59:27.120Z,11.60
2019-05-07T12:00:27.110Z,10.90
2019-05-07T12:01:34.811Z,12.00
2019-05-07T12:02:28.100Z,11.10
2019-05-07T12:03:27.075Z,11.70
2019-05-07T12:04:27.984Z,12.30
2019-05-07T12:05:27.049Z,11.20
2019-05-07T12:06:27.039Z,11.70
2019-05-07T12:07:27.073Z,11.50
2019-05-07T12:08:39.319Z,11.50
2019-05-07T12:09:28.001Z,12.70
2019-05-07T12:10:26.998Z,12.00
2019-05-07T12:11:26.987Z,12.40
2019-05-07T12:12:26.969Z,11.90
2019-05-07T12:13:26.967Z,12.40
2019-05-07T12:14:31.838Z,11.40
2019-05-07T12:15:27.938Z,11.50
2019-05-07T12:16:26.933Z,11.00
2019-05-07T12:17:26.914Z,11.50
2019-05-07T12:18:26.903Z,11.30
2019-05-07T12:19:26.895Z,10.80
2019-05-07T12:20:26.901Z,11.00
2019-05-07T12:21:26.869Z,11.10
2019-05-07T12:22:26.870Z,9.90
2019-05-07T12:23:26.851Z,10.50
2019-05-07T12:24:26.839Z,11.10
2019-05-07T12:25:26.823Z,10.70
2019-05-07T12:26:26.840Z,10.70
2019-05-07T12:27:26.800Z,11.00
2019-05-07T12:28:26.791Z,11.10
2019-05-07T12:29:26.788Z,10.50
2019-05-07T12:30:26.771Z,10.50
2019-05-07T12:31:26.761Z,10.30
2019-05-07T12:32:26.768Z,10.40
2019-05-07T12:33:26.733Z,10.30
2019-05-07T12:34:26.721Z,10.00
2019-05-07T12:35:26.711Z,9.60
2019-05-07T12:36:26.751Z,9.80
2019-05-07T12:37:26.703Z,9.60
2019-05-07T12:38:26.693Z,10.20
2019-05-07T12:39:26.664Z,9.90
2019-05-07T12:40:26.658Z,9.60
2019-05-07T12:41:26.658Z,8.90
2019-05-07T12:42:26.640Z,9.60
2019-05-07T12:43:26.620Z,10.30
2019-05-07T12:44:26.635Z,9.50
2019-05-07T12:45:26.603Z,9.70
2019-05-07T12:46:26.608Z,10.70
2019-05-07T12:47:26.578Z,9.60
2019-05-07T12:48:26.563Z,10.10
2019-05-07T12:49:26.554Z,9.10
2019-05-07T12:50:26.559Z,9.20
2019-05-07T12:51:34.504Z,8.90
2019-05-07T12:52:27.517Z,9.30
2019-05-07T12:53:26.507Z,9.30